createdAt,value
2022-07-31T00:00:28.929Z,12.27
2022-07-31T00:02:57.621Z,9.80
2022-07-31T00:05:26.384Z,8.70
2022-07-31T00:07:55.155Z,12.40
2022-07-31T00:10:23.861Z,23.77
2022-07-31T00:12:52.545Z,15.07
2022-07-31T00:15:22.412Z,11.43
2022-07-31T00:17:51.058Z,15.43
2022-07-31T00:20:19.763Z,12.00
2022-07-31T00:22:49.423Z,21.48
2022-07-31T00:25:18.889Z,17.15
2022-07-31T00:27:47.557Z,18.38
2022-07-31T00:30:17.056Z,14.23
2022-07-31T00:32:47.093Z,14.85
2022-07-31T00:35:17.373Z,17.60
2022-07-31T00:37:46.004Z,16.45
2022-07-31T00:40:16.080Z,16.88
2022-07-31T00:42:44.867Z,21.30
2022-07-31T00:45:13.995Z,23.67
2022-07-31T00:47:42.850Z,18.20
2022-07-31T00:50:13.910Z,24.08
2022-07-31T00:52:42.419Z,26.33
2022-07-31T00:55:11.348Z,23.83
2022-07-31T00:57:39.856Z,24.95
2022-07-31T01:00:08.911Z,35.53
2022-07-31T01:02:38.466Z,36.97
2022-07-31T01:05:18.964Z,66.07
2022-07-31T01:07:49.020Z,42.63
2022-07-31T01:10:21.349Z,44.05
2022-07-31T01:12:54.325Z,43.42
2022-07-31T01:15:23.310Z,63.53
2022-07-31T01:17:53.088Z,73.88
2022-07-31T01:20:23.830Z,71.90
2022-07-31T01:22:59.231Z,66.68
2022-07-31T01:25:33.820Z,56.05
2022-07-31T01:28:06.168Z,83.85
2022-07-31T01:30:38.276Z,89.53
2022-07-31T01:33:09.198Z,76.32
2022-07-31T01:35:41.652Z,58.25
2022-07-31T01:38:12.623Z,59.05
2022-07-31T01:40:44.163Z,86.53
2022-07-31T01:43:14.539Z,89.32
2022-07-31T01:45:45.383Z,85.78
2022-07-31T01:48:16.273Z,76.47
2022-07-31T01:50:45.981Z,88.93
2022-07-31T01:53:15.671Z,74.40
2022-07-31T01:56:02.650Z,70.13
2022-07-31T01:58:35.044Z,71.22
2022-07-31T02:01:05.731Z,84.15
2022-07-31T02:03:44.224Z,68.35
2022-07-31T02:06:15.160Z,90.80
2022-07-31T02:08:45.941Z,75.75
2022-07-31T02:11:15.267Z,85.32
2022-07-31T02:13:43.982Z,86.90
2022-07-31T02:16:13.955Z,70.53
2022-07-31T02:18:42.524Z,68.90
2022-07-31T02:21:11.286Z,66.72
2022-07-31T02:23:39.775Z,72.85
2022-07-31T02:26:09.091Z,78.45
2022-07-31T02:28:39.116Z,64.13
2022-07-31T02:31:10.296Z,78.55
2022-07-31T02:33:41.425Z,70.03
2022-07-31T02:36:11.657Z,75.78
2022-07-31T02:38:41.264Z,68.60
2022-07-31T02:41:11.388Z,74.72
2022-07-31T02:43:40.567Z,67.47
2022-07-31T02:46:09.903Z,63.88
2022-07-31T02:48:40.085Z,67.00
2022-07-31T02:51:08.991Z,71.35
2022-07-31T02:53:38.703Z,84.47
2022-07-31T02:56:09.438Z,77.53
2022-07-31T02:58:41.931Z,88.40
2022-07-31T03:01:10.703Z,84.20
2022-07-31T03:03:40.687Z,85.22
2022-07-31T03:06:09.261Z,76.85
2022-07-31T03:08:38.931Z,89.82
2022-07-31T03:11:07.482Z,95.72
2022-07-31T03:13:36.896Z,90.10
2022-07-31T03:16:06.103Z,93.88
2022-07-31T03:18:35.015Z,90.40
2022-07-31T03:21:05.187Z,95.07
2022-07-31T03:23:36.616Z,84.20
2022-07-31T03:26:05.605Z,88.78
2022-07-31T03:28:35.501Z,89.22
2022-07-31T03:31:04.157Z,85.95
2022-07-31T03:33:32.899Z,93.22
2022-07-31T03:36:01.409Z,101.57
2022-07-31T03:38:38.662Z,80.97
2022-07-31T03:41:09.720Z,102.55
2022-07-31T03:43:44.332Z,82.97
2022-07-31T03:46:17.088Z,93.55
2022-07-31T03:48:45.843Z,89.43
2022-07-31T03:51:14.688Z,79.72
2022-07-31T03:53:45.360Z,77.70
2022-07-31T03:56:14.150Z,84.53
2022-07-31T03:58:42.652Z,84.93
2022-07-31T04:01:17.367Z,68.53
2022-07-31T04:03:49.356Z,59.58
2022-07-31T04:06:17.899Z,54.55
2022-07-31T04:08:48.501Z,65.00
2022-07-31T04:11:17.732Z,56.05
2022-07-31T04:13:46.231Z,63.47
2022-07-31T04:16:14.712Z,59.45
2022-07-31T04:18:43.210Z,56.95
2022-07-31T04:21:19.453Z,59.92
2022-07-31T04:23:50.435Z,91.68
2022-07-31T04:26:19.859Z,59.63
2022-07-31T04:28:54.828Z,78.20
2022-07-31T04:31:23.285Z,80.35
2022-07-31T04:33:56.127Z,80.82
2022-07-31T04:36:30.672Z,108.95
2022-07-31T04:39:01.184Z,89.15
2022-07-31T04:41:29.926Z,107.90
2022-07-31T04:43:59.578Z,99.93
2022-07-31T04:46:29.579Z,111.30
2022-07-31T04:48:58.218Z,106.47
2022-07-31T04:51:26.794Z,115.43
2022-07-31T04:53:55.252Z,96.03
2022-07-31T04:56:44.933Z,108.15
2022-07-31T04:59:14.271Z,113.47
2022-07-31T05:01:43.429Z,81.53
2022-07-31T05:04:12.276Z,88.18
2022-07-31T05:06:41.481Z,77.68
2022-07-31T05:09:17.819Z,71.03
2022-07-31T05:11:49.532Z,31.67
2022-07-31T05:14:18.896Z,35.03
2022-07-31T05:16:47.439Z,22.80
2022-07-31T05:19:15.884Z,22.83
2022-07-31T05:21:51.370Z,16.53
2022-07-31T05:24:33.204Z,17.13
2022-07-31T05:27:04.137Z,13.07
2022-07-31T05:29:33.034Z,13.93
2022-07-31T05:32:01.880Z,11.97
2022-07-31T05:34:30.911Z,8.97
2022-07-31T05:37:01.165Z,9.77
2022-07-31T05:39:30.380Z,10.37
2022-07-31T05:41:59.064Z,8.30
2022-07-31T05:44:28.975Z,11.37
2022-07-31T05:49:26.824Z,8.47
2022-07-31T05:51:55.562Z,7.63
2022-07-31T05:54:24.259Z,7.23
2022-07-31T05:56:52.736Z,7.67
2022-07-31T05:59:21.177Z,11.53
2022-07-31T06:01:51.278Z,6.87
2022-07-31T06:04:19.699Z,13.03
2022-07-31T06:06:48.260Z,7.10
2022-07-31T06:09:16.740Z,10.30
2022-07-31T06:11:45.159Z,9.37
2022-07-31T06:14:13.731Z,7.70
2022-07-31T06:16:42.200Z,6.50
2022-07-31T06:19:12.060Z,7.33
2022-07-31T06:21:40.637Z,8.57
2022-07-31T06:24:09.306Z,12.40
2022-07-31T06:26:37.848Z,6.70
2022-07-31T06:29:07.382Z,10.47
2022-07-31T06:31:35.854Z,5.57
2022-07-31T06:34:04.367Z,6.50
2022-07-31T06:36:34.472Z,6.20
2022-07-31T06:39:02.910Z,5.77
2022-07-31T06:41:48.329Z,6.17
2022-07-31T06:44:16.831Z,5.73
2022-07-31T06:46:49.110Z,10.20
2022-07-31T06:49:18.180Z,4.67
2022-07-31T06:51:48.110Z,8.17
2022-07-31T06:54:16.581Z,4.30
2022-07-31T06:56:45.464Z,5.60
2022-07-31T06:59:13.960Z,4.27
2022-07-31T07:02:02.618Z,5.80
2022-07-31T07:05:05.241Z,7.67
2022-07-31T07:07:22.572Z,5.13
2022-07-31T07:09:51.083Z,4.70
2022-07-31T07:12:19.854Z,4.23
2022-07-31T07:14:51.009Z,5.23
2022-07-31T07:17:19.578Z,7.50
2022-07-31T07:19:49.634Z,5.27
2022-07-31T07:22:31.256Z,9.93
2022-07-31T07:25:01.572Z,10.53
2022-07-31T07:27:30.216Z,5.97
2022-07-31T07:29:58.924Z,6.63
2022-07-31T07:32:27.467Z,6.90
2022-07-31T07:35:00.057Z,6.43
2022-07-31T07:37:31.172Z,6.50
2022-07-31T07:40:08.379Z,5.73
2022-07-31T07:42:36.822Z,6.10
2022-07-31T07:45:08.346Z,5.63
2022-07-31T07:48:05.125Z,6.23
2022-07-31T07:50:26.805Z,4.77
2022-07-31T07:52:59.027Z,5.87
2022-07-31T07:55:27.521Z,4.30
2022-07-31T07:58:11.405Z,10.00
2022-07-31T08:00:40.719Z,7.73
2022-07-31T08:03:50.030Z,3.57
2022-07-31T08:05:57.819Z,11.00
2022-07-31T08:08:27.900Z,2.60
2022-07-31T08:10:56.337Z,8.17
2022-07-31T08:13:25.266Z,4.30
2022-07-31T08:15:53.776Z,2.97
2022-07-31T08:18:22.448Z,5.17
2022-07-31T08:20:56.916Z,3.00
2022-07-31T08:23:27.130Z,3.13
2022-07-31T08:25:55.698Z,3.50
2022-07-31T08:28:26.071Z,3.23
2022-07-31T08:30:54.968Z,6.07
2022-07-31T08:33:23.499Z,2.67
2022-07-31T08:35:51.988Z,3.30
2022-07-31T08:38:20.785Z,3.20
2022-07-31T08:40:50.742Z,6.30
2022-07-31T08:44:01.574Z,4.00
2022-07-31T08:46:08.502Z,2.43
2022-07-31T08:48:41.788Z,2.43
2022-07-31T08:51:12.525Z,2.70
2022-07-31T08:53:41.739Z,2.70
2022-07-31T08:56:11.751Z,2.73
2022-07-31T08:58:40.297Z,2.60
2022-07-31T09:01:09.633Z,3.37
2022-07-31T09:03:38.670Z,8.73
2022-07-31T09:06:07.600Z,3.23
2022-07-31T09:08:36.538Z,3.77
2022-07-31T09:11:06.211Z,3.57
2022-07-31T09:13:36.675Z,2.87
2022-07-31T09:16:05.622Z,2.43
2022-07-31T09:18:35.123Z,2.70
2022-07-31T09:21:04.413Z,3.53
2022-07-31T09:23:33.527Z,1.67
2022-07-31T09:26:03.423Z,2.00
2022-07-31T09:28:37.450Z,6.10
2022-07-31T09:31:06.895Z,2.33
2022-07-31T09:33:42.330Z,4.57
2022-07-31T09:36:14.903Z,3.43
2022-07-31T09:38:44.484Z,1.80
2022-07-31T09:41:53.583Z,3.73
2022-07-31T09:44:09.953Z,4.20
2022-07-31T09:46:42.466Z,4.80
2022-07-31T09:49:11.260Z,2.50
2022-07-31T09:51:41.023Z,2.40
2022-07-31T09:54:09.903Z,2.90
2022-07-31T09:56:38.347Z,9.57
2022-07-31T09:59:08.963Z,2.40
2022-07-31T10:01:41.386Z,2.27
2022-07-31T10:04:10.306Z,2.60
2022-07-31T10:06:39.989Z,3.30
2022-07-31T10:09:08.937Z,3.03
2022-07-31T10:11:39.017Z,2.23
2022-07-31T10:14:10.251Z,3.80
2022-07-31T10:16:41.861Z,3.67
2022-07-31T10:19:13.240Z,2.20
2022-07-31T10:21:43.735Z,4.20
2022-07-31T10:24:13.398Z,2.47
2022-07-31T10:27:00.693Z,2.40
2022-07-31T10:29:33.324Z,9.80
2022-07-31T10:32:02.111Z,2.10
2022-07-31T10:34:31.389Z,4.03
2022-07-31T10:37:05.370Z,2.80
2022-07-31T10:39:44.073Z,2.20
2022-07-31T10:42:17.658Z,1.80
2022-07-31T10:44:49.014Z,7.60
2022-07-31T10:47:18.090Z,1.73
2022-07-31T10:49:49.118Z,5.50
2022-07-31T10:52:27.975Z,4.20
2022-07-31T10:54:58.267Z,2.10
2022-07-31T10:57:27.398Z,3.30
2022-07-31T10:59:57.884Z,2.00
2022-07-31T11:02:30.096Z,2.27
2022-07-31T11:05:08.509Z,1.70
2022-07-31T11:07:37.102Z,3.43
2022-07-31T11:10:16.439Z,1.83
2022-07-31T11:12:45.007Z,11.40
2022-07-31T11:15:22.104Z,5.13
2022-07-31T11:18:21.193Z,3.00
2022-07-31T11:20:41.114Z,4.40
2022-07-31T11:23:10.497Z,2.10
2022-07-31T11:25:40.026Z,1.90
2022-07-31T11:28:12.659Z,1.90
2022-07-31T11:30:53.719Z,2.70
2022-07-31T11:33:41.910Z,1.73
2022-07-31T11:36:12.135Z,1.80
2022-07-31T11:38:41.748Z,6.50
2022-07-31T11:41:10.874Z,2.67
2022-07-31T11:43:45.448Z,2.33
2022-07-31T11:46:16.562Z,1.90
2022-07-31T11:48:45.799Z,3.50
2022-07-31T11:51:19.607Z,3.80
2022-07-31T11:53:48.429Z,1.90
2022-07-31T11:56:26.369Z,4.10
2022-07-31T11:58:55.688Z,3.00
2022-07-31T12:01:29.230Z,1.90
2022-07-31T12:04:08.696Z,3.13
2022-07-31T12:06:37.988Z,3.13
2022-07-31T12:09:06.518Z,2.03
2022-07-31T12:11:35.031Z,3.93
2022-07-31T12:14:03.526Z,4.33
2022-07-31T12:16:42.421Z,2.30
2022-07-31T12:19:10.893Z,2.70
2022-07-31T12:21:40.773Z,2.20
2022-07-31T12:24:13.143Z,2.10
2022-07-31T12:26:44.962Z,9.50
2022-07-31T12:29:14.048Z,3.10
2022-07-31T12:31:47.549Z,3.10
2022-07-31T12:34:16.078Z,10.10
2022-07-31T12:36:44.668Z,5.00
2022-07-31T12:39:13.702Z,2.90
2022-07-31T12:41:45.258Z,9.93
2022-07-31T12:44:14.583Z,3.20
2022-07-31T12:46:43.710Z,3.80
2022-07-31T12:49:13.773Z,7.30
2022-07-31T12:51:45.012Z,2.20
2022-07-31T12:54:15.961Z,3.33
2022-07-31T12:56:44.967Z,2.43
2022-07-31T12:59:13.713Z,2.37
2022-07-31T13:01:42.317Z,3.93
2022-07-31T13:04:18.690Z,4.90
2022-07-31T13:06:51.657Z,2.60
2022-07-31T13:09:20.498Z,2.73
2022-07-31T13:11:52.122Z,4.80
2022-07-31T13:14:24.867Z,2.67
2022-07-31T13:16:55.055Z,8.93
2022-07-31T13:19:23.570Z,7.20
2022-07-31T13:21:56.618Z,3.10
2022-07-31T13:24:25.552Z,5.07
2022-07-31T13:26:54.080Z,3.67
2022-07-31T13:29:22.522Z,6.10
2022-07-31T13:31:50.990Z,10.70
2022-07-31T13:34:19.421Z,5.77
2022-07-31T13:36:47.864Z,3.57
2022-07-31T13:39:17.752Z,6.10
2022-07-31T13:41:46.251Z,5.27
2022-07-31T13:44:15.105Z,3.57
2022-07-31T13:46:43.619Z,5.43
2022-07-31T13:49:12.708Z,3.90
2022-07-31T13:51:41.295Z,3.40
2022-07-31T13:54:09.955Z,3.43
2022-07-31T13:56:43.473Z,3.57
2022-07-31T13:59:16.626Z,5.53
2022-07-31T14:02:04.460Z,4.00
2022-07-31T14:04:38.275Z,5.00
2022-07-31T14:07:07.956Z,6.83
2022-07-31T14:09:37.759Z,9.00
2022-07-31T14:12:08.488Z,4.47
2022-07-31T14:14:38.175Z,4.20
2022-07-31T14:17:06.677Z,4.37
2022-07-31T14:19:41.957Z,4.53
2022-07-31T14:22:13.315Z,4.97
2022-07-31T14:24:45.645Z,4.07
2022-07-31T14:27:21.940Z,4.43
2022-07-31T14:29:50.486Z,6.00
2022-07-31T14:32:19.475Z,4.33
2022-07-31T14:34:48.055Z,4.20
2022-07-31T14:37:16.621Z,5.37
2022-07-31T14:39:45.185Z,7.70
2022-07-31T14:42:13.915Z,5.63
2022-07-31T14:44:43.931Z,3.90
2022-07-31T14:47:12.944Z,3.50
2022-07-31T14:50:08.543Z,4.50
2022-07-31T14:52:30.883Z,4.37
2022-07-31T14:55:00.523Z,4.20
2022-07-31T14:57:29.908Z,4.93
2022-07-31T14:59:59.860Z,7.60
2022-07-31T15:02:28.682Z,5.67
2022-07-31T15:04:57.235Z,6.20
2022-07-31T15:07:35.308Z,3.63
2022-07-31T15:10:06.300Z,4.30
2022-07-31T15:12:34.986Z,3.47
2022-07-31T15:15:05.003Z,4.03
2022-07-31T15:17:33.468Z,3.70
2022-07-31T15:20:20.869Z,4.97
2022-07-31T15:23:20.029Z,4.07
2022-07-31T15:25:49.613Z,5.33
2022-07-31T15:28:18.177Z,5.87
2022-07-31T15:30:48.160Z,4.80
2022-07-31T15:33:16.810Z,4.63
2022-07-31T15:35:45.422Z,4.10
2022-07-31T15:38:13.878Z,5.23
2022-07-31T15:40:42.432Z,9.03
2022-07-31T15:43:10.844Z,7.47
2022-07-31T15:45:39.502Z,7.87
2022-07-31T15:48:10.145Z,3.50
2022-07-31T15:50:38.971Z,3.63
2022-07-31T15:53:07.450Z,9.17
2022-07-31T15:55:35.956Z,5.97
2022-07-31T15:58:04.404Z,6.67
2022-07-31T16:00:32.836Z,5.03
2022-07-31T16:03:01.930Z,4.53
2022-07-31T16:05:38.621Z,3.57
2022-07-31T16:08:31.293Z,2.80
2022-07-31T16:10:56.761Z,2.57
2022-07-31T16:13:25.723Z,3.00
2022-07-31T16:15:54.521Z,2.40
2022-07-31T16:18:24.222Z,3.37
2022-07-31T16:20:54.132Z,2.30
2022-07-31T16:23:25.628Z,2.40
2022-07-31T16:25:54.106Z,3.53
2022-07-31T16:28:22.748Z,3.90
2022-07-31T16:30:52.115Z,2.50
2022-07-31T16:33:20.714Z,2.17
2022-07-31T16:35:49.211Z,3.30
2022-07-31T16:38:19.139Z,2.37
2022-07-31T16:40:51.824Z,2.10
2022-07-31T16:43:49.303Z,2.47
2022-07-31T16:46:10.519Z,2.43
2022-07-31T16:48:39.011Z,1.93
2022-07-31T16:51:07.631Z,2.47
2022-07-31T16:54:13.416Z,5.43
2022-07-31T16:56:25.948Z,3.43
2022-07-31T16:58:56.005Z,2.17
2022-07-31T17:01:57.546Z,3.70
2022-07-31T17:04:13.876Z,2.87
2022-07-31T17:06:42.406Z,2.43
2022-07-31T17:09:16.073Z,5.67
2022-07-31T17:11:46.585Z,2.60
2022-07-31T17:14:15.043Z,2.80
2022-07-31T17:16:47.084Z,3.03
2022-07-31T17:19:16.854Z,2.73
2022-07-31T17:22:05.468Z,2.50
2022-07-31T17:24:37.889Z,4.93
2022-07-31T17:27:07.668Z,5.60
2022-07-31T17:29:36.630Z,4.57
2022-07-31T17:32:05.657Z,3.27
2022-07-31T17:34:35.420Z,2.97
2022-07-31T17:37:04.422Z,3.53
2022-07-31T17:39:33.188Z,3.03
2022-07-31T17:42:03.186Z,3.33
2022-07-31T17:44:31.922Z,3.23
2022-07-31T17:47:00.477Z,3.53
2022-07-31T17:49:32.407Z,3.37
2022-07-31T17:52:00.942Z,4.20
2022-07-31T17:54:30.403Z,6.27
2022-07-31T17:56:59.194Z,4.03
2022-07-31T17:59:29.168Z,4.40
2022-07-31T18:02:00.214Z,4.57
2022-07-31T18:04:29.289Z,7.97
2022-07-31T18:06:57.921Z,6.17
2022-07-31T18:09:26.688Z,5.20
2022-07-31T18:11:55.554Z,6.80
2022-07-31T18:14:24.830Z,5.67
2022-07-31T18:16:55.019Z,7.20
2022-07-31T18:19:23.866Z,8.73
2022-07-31T18:21:52.570Z,8.87
2022-07-31T18:24:21.333Z,8.90
2022-07-31T18:26:50.365Z,6.70
2022-07-31T18:29:19.257Z,14.30
2022-07-31T18:31:47.977Z,10.67
2022-07-31T18:34:18.223Z,5.53
2022-07-31T18:36:48.650Z,8.67
2022-07-31T18:39:19.024Z,7.77
2022-07-31T18:41:49.065Z,4.30
2022-07-31T18:44:22.036Z,5.60
2022-07-31T18:46:50.633Z,5.27
2022-07-31T18:51:02.115Z,4.83
2022-07-31T18:52:09.903Z,6.10
2022-07-31T18:54:38.514Z,5.57
2022-07-31T18:57:07.843Z,7.80
2022-07-31T18:59:38.754Z,9.10
2022-07-31T19:02:11.488Z,5.77
2022-07-31T19:04:41.996Z,6.47
2022-07-31T19:07:10.563Z,5.77
2022-07-31T19:09:39.202Z,6.97
2022-07-31T19:12:08.937Z,9.63
2022-07-31T19:14:37.740Z,7.67
2022-07-31T19:17:06.990Z,6.47
2022-07-31T19:19:41.564Z,11.63
2022-07-31T19:22:24.551Z,11.50
2022-07-31T19:24:53.286Z,13.93
2022-07-31T19:27:21.726Z,7.20
2022-07-31T19:30:10.588Z,7.17
2022-07-31T19:32:40.801Z,9.40
2022-07-31T19:35:09.576Z,7.27
2022-07-31T19:37:39.468Z,7.70
2022-07-31T19:40:08.889Z,8.10
2022-07-31T19:42:37.339Z,6.60
2022-07-31T19:45:06.147Z,6.70
2022-07-31T19:47:36.497Z,8.60
2022-07-31T19:50:05.485Z,8.13
2022-07-31T19:52:33.879Z,7.13
2022-07-31T19:55:03.816Z,7.95
2022-07-31T19:57:32.393Z,8.20
2022-07-31T20:00:00.819Z,7.80
2022-07-31T20:02:29.305Z,9.10
2022-07-31T20:04:57.742Z,9.03
2022-07-31T20:07:32.662Z,8.30
2022-07-31T20:10:02.074Z,11.20
2022-07-31T20:12:31.858Z,8.03
2022-07-31T20:15:00.623Z,8.27
2022-07-31T20:17:29.297Z,8.10
2022-07-31T20:20:02.805Z,11.13
2022-07-31T20:22:42.895Z,10.97
2022-07-31T20:25:19.482Z,9.27
2022-07-31T20:27:50.450Z,8.30
2022-07-31T20:30:22.008Z,9.53
2022-07-31T20:32:50.741Z,8.60
2022-07-31T20:35:32.816Z,10.03
2022-07-31T20:38:13.964Z,8.90
2022-07-31T20:40:52.764Z,8.27
2022-07-31T20:43:24.358Z,8.43
2022-07-31T20:45:52.920Z,8.43
2022-07-31T20:48:24.397Z,8.10
2022-07-31T20:50:53.662Z,7.33
2022-07-31T20:53:23.129Z,8.40
2022-07-31T20:55:51.757Z,10.73
2022-07-31T20:58:20.847Z,12.83
2022-07-31T21:00:51.739Z,8.07
2022-07-31T21:03:20.739Z,10.43
2022-07-31T21:05:49.654Z,8.10
2022-07-31T21:08:18.298Z,8.87
2022-07-31T21:10:46.811Z,7.17
2022-07-31T21:13:15.343Z,7.67
2022-07-31T21:15:45.254Z,7.97
2022-07-31T21:18:15.879Z,8.63
2022-07-31T21:20:51.128Z,9.90
2022-07-31T21:23:22.045Z,8.70
2022-07-31T21:25:50.831Z,8.33
2022-07-31T21:28:19.866Z,7.93
2022-07-31T21:30:48.822Z,10.23
2022-07-31T21:33:19.333Z,8.20
2022-07-31T21:35:48.179Z,8.43
2022-07-31T21:38:16.795Z,8.80
2022-07-31T21:40:45.767Z,7.93
2022-07-31T21:43:16.918Z,7.67
2022-07-31T21:45:55.542Z,12.40
2022-07-31T21:48:28.232Z,13.03
2022-07-31T21:50:56.833Z,10.30
2022-07-31T21:53:25.694Z,7.70
2022-07-31T21:55:54.289Z,7.30
2022-07-31T21:58:22.780Z,7.20
2022-07-31T22:00:51.340Z,6.97
2022-07-31T22:03:19.904Z,11.33
2022-07-31T22:06:07.302Z,7.10
2022-07-31T22:08:35.861Z,7.60
2022-07-31T22:11:04.419Z,10.47
2022-07-31T22:13:32.919Z,8.83
2022-07-31T22:16:02.155Z,8.37
2022-07-31T22:18:31.222Z,9.53
2022-07-31T22:21:01.666Z,7.57
2022-07-31T22:23:30.838Z,10.33
2022-07-31T22:25:59.607Z,8.03
2022-07-31T22:28:28.406Z,7.30
2022-07-31T22:30:57.207Z,10.20
2022-07-31T22:33:25.887Z,6.80
2022-07-31T22:36:00.002Z,7.30
2022-07-31T22:38:31.820Z,8.97
2022-07-31T22:41:00.604Z,10.73
2022-07-31T22:44:10.424Z,6.00
2022-07-31T22:46:18.033Z,9.63
2022-07-31T22:48:47.037Z,7.80
2022-07-31T22:51:15.888Z,5.50
2022-07-31T22:53:48.820Z,5.93
2022-07-31T22:56:17.924Z,6.60
2022-07-31T22:58:46.529Z,6.87
2022-07-31T23:01:15.100Z,5.63
2022-07-31T23:03:43.551Z,6.20
2022-07-31T23:06:30.824Z,5.90
2022-07-31T23:09:02.613Z,5.00
2022-07-31T23:11:31.184Z,10.63
2022-07-31T23:13:59.796Z,5.67
2022-07-31T23:16:28.277Z,7.50
2022-07-31T23:18:56.803Z,6.90
2022-07-31T23:21:25.886Z,5.03
2022-07-31T23:23:54.696Z,7.25
2022-07-31T23:26:25.396Z,4.80
2022-07-31T23:28:54.279Z,6.23
2022-07-31T23:31:23.371Z,7.43
2022-07-31T23:33:52.883Z,4.70
2022-07-31T23:36:21.571Z,5.50
2022-07-31T23:38:50.503Z,5.17
2022-07-31T23:41:39.974Z,5.90
2022-07-31T23:44:10.643Z,5.07
2022-07-31T23:46:40.331Z,4.87
2022-07-31T23:49:09.259Z,6.60
2022-07-31T23:51:37.768Z,4.70
2022-07-31T23:54:06.374Z,5.20
2022-07-31T23:56:35.020Z,6.43
2022-07-31T23:59:03.568Z,5.47
